sensor_id;sensor_type;location;lat;lon;timestamp;P1;durP1;ratioP1;P2;durP2;ratioP2
53694;SDS011;39588;51.124;7.190;2023-05-21T00:00:41;9.67;;;5.03;;
53694;SDS011;39588;51.124;7.190;2023-05-21T00:03:07;8.73;;;5.60;;
53694;SDS011;39588;51.124;7.190;2023-05-21T00:05:38;11.33;;;5.37;;
53694;SDS011;39588;51.124;7.190;2023-05-21T00:08:04;7.13;;;4.63;;
53694;SDS011;39588;51.124;7.190;2023-05-21T00:10:30;8.60;;;4.53;;
53694;SDS011;39588;51.124;7.190;2023-05-21T00:12:56;7.97;;;5.43;;
53694;SDS011;39588;51.124;7.190;2023-05-21T00:15:21;9.77;;;4.30;;
53694;SDS011;39588;51.124;7.190;2023-05-21T00:17:47;9.80;;;5.30;;
53694;SDS011;39588;51.124;7.190;2023-05-21T00:20:13;10.67;;;4.87;;
53694;SDS011;39588;51.124;7.190;2023-05-21T00:22:38;11.83;;;5.90;;
53694;SDS011;39588;51.124;7.190;2023-05-21T00:25:06;6.37;;;4.77;;
53694;SDS011;39588;51.124;7.190;2023-05-21T00:27:32;11.27;;;5.60;;
53694;SDS011;39588;51.124;7.190;2023-05-21T00:29:58;7.60;;;5.10;;
53694;SDS011;39588;51.124;7.190;2023-05-21T00:32:23;9.10;;;5.50;;
53694;SDS011;39588;51.124;7.190;2023-05-21T00:34:50;7.47;;;4.90;;
53694;SDS011;39588;51.124;7.190;2023-05-21T00:37:15;16.90;;;4.80;;
53694;SDS011;39588;51.124;7.190;2023-05-21T00:39:41;11.97;;;5.70;;
53694;SDS011;39588;51.124;7.190;2023-05-21T00:42:07;7.23;;;4.60;;
53694;SDS011;39588;51.124;7.190;2023-05-21T00:44:32;8.30;;;5.07;;
53694;SDS011;39588;51.124;7.190;2023-05-21T00:47:02;9.97;;;5.13;;
53694;SDS011;39588;51.124;7.190;2023-05-21T00:49:28;7.73;;;4.90;;
53694;SDS011;39588;51.124;7.190;2023-05-21T00:51:55;8.43;;;4.53;;
53694;SDS011;39588;51.124;7.190;2023-05-21T00:54:21;8.47;;;4.93;;
53694;SDS011;39588;51.124;7.190;2023-05-21T00:56:48;8.47;;;4.53;;
53694;SDS011;39588;51.124;7.190;2023-05-21T00:59:15;7.60;;;4.33;;
53694;SDS011;39588;51.124;7.190;2023-05-21T01:01:43;7.83;;;4.77;;
53694;SDS011;39588;51.124;7.190;2023-05-21T01:04:21;9.17;;;4.90;;
53694;SDS011;39588;51.124;7.190;2023-05-21T01:06:50;16.47;;;4.37;;
53694;SDS011;39588;51.124;7.190;2023-05-21T01:09:17;6.03;;;4.57;;
53694;SDS011;39588;51.124;7.190;2023-05-21T01:11:45;7.27;;;4.50;;
53694;SDS011;39588;51.124;7.190;2023-05-21T01:14:12;5.07;;;4.03;;
53694;SDS011;39588;51.124;7.190;2023-05-21T01:16:40;6.80;;;4.80;;
53694;SDS011;39588;51.124;7.190;2023-05-21T01:19:09;5.20;;;3.53;;
53694;SDS011;39588;51.124;7.190;2023-05-21T01:21:41;8.00;;;4.43;;
53694;SDS011;39588;51.124;7.190;2023-05-21T01:24:10;5.13;;;3.87;;
53694;SDS011;39588;51.124;7.190;2023-05-21T01:26:37;4.07;;;3.50;;
53694;SDS011;39588;51.124;7.190;2023-05-21T01:29:04;11.43;;;4.30;;
53694;SDS011;39588;51.124;7.190;2023-05-21T01:34:29;8.07;;;4.10;;
53694;SDS011;39588;51.124;7.190;2023-05-21T01:39:46;7.63;;;4.37;;
53694;SDS011;39588;51.124;7.190;2023-05-21T01:42:20;4.57;;;3.47;;
53694;SDS011;39588;51.124;7.190;2023-05-21T01:44:49;5.50;;;4.60;;
53694;SDS011;39588;51.124;7.190;2023-05-21T01:47:18;6.57;;;4.13;;
53694;SDS011;39588;51.124;7.190;2023-05-21T01:49:46;6.87;;;4.17;;
53694;SDS011;39588;51.124;7.190;2023-05-21T01:52:12;5.33;;;4.27;;
53694;SDS011;39588;51.124;7.190;2023-05-21T01:54:37;8.80;;;4.03;;
53694;SDS011;39588;51.124;7.190;2023-05-21T01:57:03;5.47;;;3.80;;
53694;SDS011;39588;51.124;7.190;2023-05-21T01:59:29;5.47;;;3.67;;
53694;SDS011;39588;51.124;7.190;2023-05-21T02:01:55;8.23;;;4.10;;
53694;SDS011;39588;51.124;7.190;2023-05-21T02:04:21;8.13;;;4.20;;
53694;SDS011;39588;51.124;7.190;2023-05-21T02:06:46;5.23;;;3.93;;
53694;SDS011;39588;51.124;7.190;2023-05-21T02:09:12;6.67;;;4.60;;
53694;SDS011;39588;51.124;7.190;2023-05-21T02:11:37;6.57;;;4.00;;
53694;SDS011;39588;51.124;7.190;2023-05-21T02:14:03;6.17;;;4.37;;
53694;SDS011;39588;51.124;7.190;2023-05-21T02:16:28;4.80;;;3.57;;
53694;SDS011;39588;51.124;7.190;2023-05-21T02:18:54;5.90;;;4.10;;
53694;SDS011;39588;51.124;7.190;2023-05-21T02:21:21;8.00;;;4.20;;
53694;SDS011;39588;51.124;7.190;2023-05-21T02:23:48;4.60;;;4.07;;
53694;SDS011;39588;51.124;7.190;2023-05-21T02:26:13;4.73;;;3.80;;
53694;SDS011;39588;51.124;7.190;2023-05-21T02:28:41;14.30;;;3.87;;
53694;SDS011;39588;51.124;7.190;2023-05-21T02:31:07;9.43;;;4.60;;
53694;SDS011;39588;51.124;7.190;2023-05-21T02:33:32;6.57;;;4.57;;
53694;SDS011;39588;51.124;7.190;2023-05-21T02:36:01;5.03;;;4.07;;
53694;SDS011;39588;51.124;7.190;2023-05-21T02:38:26;7.53;;;4.30;;
53694;SDS011;39588;51.124;7.190;2023-05-21T02:40:52;6.40;;;4.57;;
53694;SDS011;39588;51.124;7.190;2023-05-21T02:43:18;6.63;;;4.77;;
53694;SDS011;39588;51.124;7.190;2023-05-21T02:45:43;12.80;;;5.00;;
53694;SDS011;39588;51.124;7.190;2023-05-21T02:48:09;7.03;;;4.60;;
53694;SDS011;39588;51.124;7.190;2023-05-21T02:50:35;7.20;;;4.80;;
53694;SDS011;39588;51.124;7.190;2023-05-21T02:53:02;6.30;;;4.30;;
53694;SDS011;39588;51.124;7.190;2023-05-21T02:55:28;8.83;;;4.17;;
53694;SDS011;39588;51.124;7.190;2023-05-21T02:57:53;5.43;;;3.90;;
53694;SDS011;39588;51.124;7.190;2023-05-21T03:00:19;5.53;;;4.10;;
53694;SDS011;39588;51.124;7.190;2023-05-21T03:02:45;11.13;;;4.13;;
53694;SDS011;39588;51.124;7.190;2023-05-21T03:05:11;7.43;;;4.77;;
53694;SDS011;39588;51.124;7.190;2023-05-21T03:07:36;8.87;;;4.17;;
53694;SDS011;39588;51.124;7.190;2023-05-21T03:10:02;4.73;;;4.17;;
53694;SDS011;39588;51.124;7.190;2023-05-21T03:12:27;15.20;;;5.13;;
53694;SDS011;39588;51.124;7.190;2023-05-21T03:14:53;6.30;;;4.57;;
53694;SDS011;39588;51.124;7.190;2023-05-21T03:17:20;9.77;;;4.40;;
53694;SDS011;39588;51.124;7.190;2023-05-21T03:19:46;5.67;;;4.33;;
53694;SDS011;39588;51.124;7.190;2023-05-21T03:22:12;5.87;;;3.83;;
53694;SDS011;39588;51.124;7.190;2023-05-21T03:24:38;5.83;;;4.20;;
53694;SDS011;39588;51.124;7.190;2023-05-21T03:27:05;6.17;;;3.90;;
53694;SDS011;39588;51.124;7.190;2023-05-21T03:29:31;7.40;;;4.90;;
53694;SDS011;39588;51.124;7.190;2023-05-21T03:31:57;7.13;;;4.43;;
53694;SDS011;39588;51.124;7.190;2023-05-21T03:34:22;7.27;;;4.33;;
53694;SDS011;39588;51.124;7.190;2023-05-21T03:36:48;7.90;;;4.53;;
53694;SDS011;39588;51.124;7.190;2023-05-21T03:39:15;5.93;;;4.57;;
53694;SDS011;39588;51.124;7.190;2023-05-21T03:41:40;13.20;;;5.37;;
53694;SDS011;39588;51.124;7.190;2023-05-21T03:44:06;9.97;;;4.47;;
53694;SDS011;39588;51.124;7.190;2023-05-21T03:46:32;7.63;;;3.97;;
53694;SDS011;39588;51.124;7.190;2023-05-21T03:48:58;6.47;;;4.83;;
53694;SDS011;39588;51.124;7.190;2023-05-21T03:51:23;5.73;;;4.70;;
53694;SDS011;39588;51.124;7.190;2023-05-21T03:53:50;12.27;;;4.93;;
53694;SDS011;39588;51.124;7.190;2023-05-21T03:56:16;6.53;;;4.50;;
53694;SDS011;39588;51.124;7.190;2023-05-21T03:58:42;11.50;;;5.07;;
53694;SDS011;39588;51.124;7.190;2023-05-21T04:01:07;6.07;;;4.30;;
53694;SDS011;39588;51.124;7.190;2023-05-21T04:03:34;7.07;;;4.70;;
53694;SDS011;39588;51.124;7.190;2023-05-21T04:06:01;8.30;;;4.50;;
53694;SDS011;39588;51.124;7.190;2023-05-21T04:08:27;8.87;;;5.07;;
53694;SDS011;39588;51.124;7.190;2023-05-21T04:10:53;4.80;;;4.30;;
53694;SDS011;39588;51.124;7.190;2023-05-21T04:13:18;10.40;;;4.80;;
53694;SDS011;39588;51.124;7.190;2023-05-21T04:15:44;7.23;;;4.90;;
53694;SDS011;39588;51.124;7.190;2023-05-21T04:18:10;12.67;;;5.20;;
53694;SDS011;39588;51.124;7.190;2023-05-21T04:20:37;7.83;;;4.97;;
53694;SDS011;39588;51.124;7.190;2023-05-21T04:23:03;6.13;;;4.47;;
53694;SDS011;39588;51.124;7.190;2023-05-21T04:25:29;10.20;;;5.03;;
53694;SDS011;39588;51.124;7.190;2023-05-21T04:27:55;10.37;;;4.87;;
53694;SDS011;39588;51.124;7.190;2023-05-21T04:30:21;9.90;;;5.77;;
53694;SDS011;39588;51.124;7.190;2023-05-21T04:32:48;7.40;;;4.77;;
53694;SDS011;39588;51.124;7.190;2023-05-21T04:35:14;4.70;;;4.20;;
53694;SDS011;39588;51.124;7.190;2023-05-21T04:37:40;9.37;;;5.23;;
53694;SDS011;39588;51.124;7.190;2023-05-21T04:40:09;5.63;;;4.27;;
53694;SDS011;39588;51.124;7.190;2023-05-21T04:42:36;7.93;;;4.77;;
53694;SDS011;39588;51.124;7.190;2023-05-21T04:45:03;9.50;;;5.00;;
53694;SDS011;39588;51.124;7.190;2023-05-21T04:47:29;9.93;;;4.03;;
53694;SDS011;39588;51.124;7.190;2023-05-21T04:49:59;18.27;;;4.67;;
53694;SDS011;39588;51.124;7.190;2023-05-21T04:52:25;10.80;;;5.37;;
53694;SDS011;39588;51.124;7.190;2023-05-21T04:54:51;5.27;;;3.80;;
53694;SDS011;39588;51.124;7.190;2023-05-21T04:57:18;5.47;;;3.73;;
53694;SDS011;39588;51.124;7.190;2023-05-21T04:59:43;10.57;;;5.60;;
53694;SDS011;39588;51.124;7.190;2023-05-21T05:02:09;6.97;;;5.30;;
53694;SDS011;39588;51.124;7.190;2023-05-21T05:04:34;5.97;;;4.50;;
53694;SDS011;39588;51.124;7.190;2023-05-21T05:07:00;9.37;;;5.60;;
53694;SDS011;39588;51.124;7.190;2023-05-21T05:09:26;7.27;;;4.83;;
53694;SDS011;39588;51.124;7.190;2023-05-21T05:11:52;6.33;;;4.43;;
53694;SDS011;39588;51.124;7.190;2023-05-21T05:14:17;10.30;;;5.67;;
53694;SDS011;39588;51.124;7.190;2023-05-21T05:16:43;9.30;;;5.03;;
53694;SDS011;39588;51.124;7.190;2023-05-21T05:19:12;6.37;;;4.80;;
53694;SDS011;39588;51.124;7.190;2023-05-21T05:21:37;14.67;;;6.10;;
53694;SDS011;39588;51.124;7.190;2023-05-21T05:24:03;7.30;;;5.20;;
53694;SDS011;39588;51.124;7.190;2023-05-21T05:26:29;8.13;;;4.63;;
53694;SDS011;39588;51.124;7.190;2023-05-21T05:28:55;8.37;;;5.77;;
53694;SDS011;39588;51.124;7.190;2023-05-21T05:31:21;7.93;;;5.20;;
53694;SDS011;39588;51.124;7.190;2023-05-21T05:33:47;5.50;;;4.87;;
53694;SDS011;39588;51.124;7.190;2023-05-21T05:36:12;8.17;;;5.20;;
53694;SDS011;39588;51.124;7.190;2023-05-21T05:38:38;5.93;;;4.70;;
53694;SDS011;39588;51.124;7.190;2023-05-21T05:41:04;10.37;;;5.00;;
53694;SDS011;39588;51.124;7.190;2023-05-21T05:43:29;8.20;;;5.23;;
53694;SDS011;39588;51.124;7.190;2023-05-21T05:45:55;5.77;;;4.47;;
53694;SDS011;39588;51.124;7.190;2023-05-21T05:48:21;8.20;;;4.33;;
53694;SDS011;39588;51.124;7.190;2023-05-21T05:50:46;7.47;;;5.33;;
53694;SDS011;39588;51.124;7.190;2023-05-21T05:53:12;9.33;;;5.50;;
53694;SDS011;39588;51.124;7.190;2023-05-21T05:55:39;7.90;;;4.97;;
53694;SDS011;39588;51.124;7.190;2023-05-21T05:58:05;9.37;;;5.50;;
53694;SDS011;39588;51.124;7.190;2023-05-21T06:00:31;5.83;;;4.47;;
53694;SDS011;39588;51.124;7.190;2023-05-21T06:02:57;9.77;;;6.40;;
53694;SDS011;39588;51.124;7.190;2023-05-21T06:05:22;8.00;;;5.07;;
53694;SDS011;39588;51.124;7.190;2023-05-21T06:07:48;7.17;;;4.80;;
53694;SDS011;39588;51.124;7.190;2023-05-21T06:10:13;9.37;;;5.43;;
53694;SDS011;39588;51.124;7.190;2023-05-21T06:12:39;7.03;;;4.83;;
53694;SDS011;39588;51.124;7.190;2023-05-21T06:15:05;6.97;;;4.83;;
53694;SDS011;39588;51.124;7.190;2023-05-21T06:17:31;6.47;;;4.47;;
53694;SDS011;39588;51.124;7.190;2023-05-21T06:19:57;8.83;;;5.40;;
53694;SDS011;39588;51.124;7.190;2023-05-21T06:22:23;6.90;;;5.03;;
53694;SDS011;39588;51.124;7.190;2023-05-21T06:24:48;6.93;;;4.33;;
53694;SDS011;39588;51.124;7.190;2023-05-21T06:27:14;6.73;;;4.97;;
53694;SDS011;39588;51.124;7.190;2023-05-21T06:29:39;7.87;;;4.87;;
53694;SDS011;39588;51.124;7.190;2023-05-21T06:32:06;5.67;;;4.83;;
53694;SDS011;39588;51.124;7.190;2023-05-21T06:34:34;6.50;;;4.90;;
53694;SDS011;39588;51.124;7.190;2023-05-21T06:37:00;8.90;;;5.03;;
53694;SDS011;39588;51.124;7.190;2023-05-21T06:39:25;6.80;;;5.33;;
53694;SDS011;39588;51.124;7.190;2023-05-21T06:41:51;9.07;;;5.33;;
53694;SDS011;39588;51.124;7.190;2023-05-21T06:44:17;7.40;;;5.03;;
53694;SDS011;39588;51.124;7.190;2023-05-21T06:46:43;8.60;;;5.00;;
53694;SDS011;39588;51.124;7.190;2023-05-21T06:49:09;9.73;;;4.73;;
53694;SDS011;39588;51.124;7.190;2023-05-21T06:51:35;13.00;;;5.23;;
53694;SDS011;39588;51.124;7.190;2023-05-21T06:54:02;6.73;;;4.63;;
53694;SDS011;39588;51.124;7.190;2023-05-21T06:56:28;5.43;;;4.17;;
53694;SDS011;39588;51.124;7.190;2023-05-21T06:58:53;7.37;;;5.47;;
53694;SDS011;39588;51.124;7.190;2023-05-21T07:01:19;8.33;;;4.97;;
53694;SDS011;39588;51.124;7.190;2023-05-21T07:03:46;8.67;;;4.90;;
53694;SDS011;39588;51.124;7.190;2023-05-21T07:06:12;12.30;;;5.67;;
53694;SDS011;39588;51.124;7.190;2023-05-21T07:08:37;7.20;;;4.53;;
53694;SDS011;39588;51.124;7.190;2023-05-21T07:11:03;11.17;;;5.63;;
53694;SDS011;39588;51.124;7.190;2023-05-21T07:13:29;7.00;;;4.80;;
53694;SDS011;39588;51.124;7.190;2023-05-21T07:15:55;16.97;;;6.10;;
53694;SDS011;39588;51.124;7.190;2023-05-21T07:18:20;14.10;;;5.50;;
53694;SDS011;39588;51.124;7.190;2023-05-21T07:20:46;5.90;;;4.97;;
53694;SDS011;39588;51.124;7.190;2023-05-21T07:23:12;8.03;;;5.57;;
53694;SDS011;39588;51.124;7.190;2023-05-21T07:25:37;7.03;;;4.93;;
53694;SDS011;39588;51.124;7.190;2023-05-21T07:28:03;8.73;;;5.53;;
53694;SDS011;39588;51.124;7.190;2023-05-21T07:30:28;12.17;;;5.23;;
53694;SDS011;39588;51.124;7.190;2023-05-21T07:32:54;9.87;;;5.53;;
53694;SDS011;39588;51.124;7.190;2023-05-21T07:35:20;7.00;;;5.03;;
53694;SDS011;39588;51.124;7.190;2023-05-21T07:37:46;6.77;;;4.90;;
53694;SDS011;39588;51.124;7.190;2023-05-21T07:40:12;9.53;;;5.37;;
53694;SDS011;39588;51.124;7.190;2023-05-21T07:42:37;9.10;;;5.93;;
53694;SDS011;39588;51.124;7.190;2023-05-21T07:45:04;6.07;;;4.90;;
53694;SDS011;39588;51.124;7.190;2023-05-21T07:47:30;12.07;;;5.30;;
53694;SDS011;39588;51.124;7.190;2023-05-21T07:49:56;12.47;;;5.77;;
53694;SDS011;39588;51.124;7.190;2023-05-21T07:52:23;9.53;;;5.47;;
53694;SDS011;39588;51.124;7.190;2023-05-21T07:54:48;7.07;;;5.23;;
53694;SDS011;39588;51.124;7.190;2023-05-21T07:57:14;10.17;;;5.47;;
53694;SDS011;39588;51.124;7.190;2023-05-21T07:59:40;11.10;;;5.60;;
53694;SDS011;39588;51.124;7.190;2023-05-21T08:02:06;8.63;;;5.43;;
53694;SDS011;39588;51.124;7.190;2023-05-21T08:04:32;8.07;;;5.07;;
53694;SDS011;39588;51.124;7.190;2023-05-21T08:06:58;8.30;;;5.03;;
53694;SDS011;39588;51.124;7.190;2023-05-21T08:09:24;8.93;;;4.93;;
53694;SDS011;39588;51.124;7.190;2023-05-21T08:11:50;9.87;;;5.70;;
53694;SDS011;39588;51.124;7.190;2023-05-21T08:14:16;9.97;;;5.30;;
53694;SDS011;39588;51.124;7.190;2023-05-21T08:16:42;5.83;;;4.67;;
53694;SDS011;39588;51.124;7.190;2023-05-21T08:19:09;8.03;;;5.40;;
53694;SDS011;39588;51.124;7.190;2023-05-21T08:21:35;7.93;;;5.17;;
53694;SDS011;39588;51.124;7.190;2023-05-21T08:24:01;8.80;;;4.30;;
53694;SDS011;39588;51.124;7.190;2023-05-21T08:26:27;7.77;;;4.50;;
53694;SDS011;39588;51.124;7.190;2023-05-21T08:28:53;5.77;;;4.30;;
53694;SDS011;39588;51.124;7.190;2023-05-21T08:31:19;11.47;;;5.37;;
53694;SDS011;39588;51.124;7.190;2023-05-21T08:33:52;7.27;;;5.10;;
53694;SDS011;39588;51.124;7.190;2023-05-21T08:36:18;19.43;;;5.63;;
53694;SDS011;39588;51.124;7.190;2023-05-21T08:38:44;6.83;;;4.70;;
53694;SDS011;39588;51.124;7.190;2023-05-21T08:41:10;6.97;;;4.97;;
53694;SDS011;39588;51.124;7.190;2023-05-21T08:43:37;12.00;;;5.23;;
53694;SDS011;39588;51.124;7.190;2023-05-21T08:46:06;10.53;;;5.73;;
53694;SDS011;39588;51.124;7.190;2023-05-21T08:48:33;6.83;;;4.93;;
53694;SDS011;39588;51.124;7.190;2023-05-21T08:51:01;8.53;;;4.93;;
53694;SDS011;39588;51.124;7.190;2023-05-21T08:53:27;6.27;;;5.17;;
53694;SDS011;39588;51.124;7.190;2023-05-21T08:55:53;7.37;;;5.03;;
53694;SDS011;39588;51.124;7.190;2023-05-21T08:58:20;10.53;;;6.13;;
53694;SDS011;39588;51.124;7.190;2023-05-21T09:00:45;9.70;;;6.00;;
53694;SDS011;39588;51.124;7.190;2023-05-21T09:03:11;10.53;;;5.70;;
53694;SDS011;39588;51.124;7.190;2023-05-21T09:05:41;8.67;;;5.70;;
53694;SDS011;39588;51.124;7.190;2023-05-21T09:08:17;9.50;;;5.40;;
53694;SDS011;39588;51.124;7.190;2023-05-21T09:10:47;14.00;;;5.63;;
53694;SDS011;39588;51.124;7.190;2023-05-21T09:13:15;13.70;;;6.13;;
53694;SDS011;39588;51.124;7.190;2023-05-21T09:15:42;7.83;;;5.67;;
53694;SDS011;39588;51.124;7.190;2023-05-21T09:18:08;7.33;;;5.33;;
53694;SDS011;39588;51.124;7.190;2023-05-21T09:20:34;7.03;;;5.53;;
53694;SDS011;39588;51.124;7.190;2023-05-21T09:23:02;8.67;;;5.70;;
53694;SDS011;39588;51.124;7.190;2023-05-21T09:25:28;9.30;;;6.20;;
53694;SDS011;39588;51.124;7.190;2023-05-21T09:27:55;6.83;;;5.20;;
53694;SDS011;39588;51.124;7.190;2023-05-21T09:30:21;10.80;;;6.13;;
53694;SDS011;39588;51.124;7.190;2023-05-21T09:32:51;16.30;;;6.37;;
53694;SDS011;39588;51.124;7.190;2023-05-21T09:35:17;8.07;;;5.70;;
53694;SDS011;39588;51.124;7.190;2023-05-21T09:37:52;12.77;;;6.77;;
53694;SDS011;39588;51.124;7.190;2023-05-21T09:40:19;9.83;;;5.87;;
53694;SDS011;39588;51.124;7.190;2023-05-21T09:42:52;7.03;;;5.43;;
53694;SDS011;39588;51.124;7.190;2023-05-21T09:47:48;10.50;;;6.73;;
53694;SDS011;39588;51.124;7.190;2023-05-21T09:50:19;9.33;;;6.00;;
53694;SDS011;39588;51.124;7.190;2023-05-21T09:52:45;7.27;;;6.03;;
53694;SDS011;39588;51.124;7.190;2023-05-21T09:55:12;7.37;;;5.43;;
53694;SDS011;39588;51.124;7.190;2023-05-21T09:57:45;8.50;;;6.37;;
53694;SDS011;39588;51.124;7.190;2023-05-21T10:00:18;8.23;;;6.00;;
53694;SDS011;39588;51.124;7.190;2023-05-21T10:02:45;8.53;;;5.83;;
53694;SDS011;39588;51.124;7.190;2023-05-21T10:05:12;9.17;;;7.00;;
53694;SDS011;39588;51.124;7.190;2023-05-21T10:07:49;9.47;;;6.73;;
53694;SDS011;39588;51.124;7.190;2023-05-21T10:10:20;18.43;;;6.47;;
53694;SDS011;39588;51.124;7.190;2023-05-21T10:13:22;10.80;;;5.80;;
53694;SDS011;39588;51.124;7.190;2023-05-21T10:15:45;6.90;;;5.43;;
53694;SDS011;39588;51.124;7.190;2023-05-21T10:18:14;6.97;;;5.43;;
53694;SDS011;39588;51.124;7.190;2023-05-21T10:20:42;11.43;;;5.80;;
53694;SDS011;39588;51.124;7.190;2023-05-21T10:23:09;7.10;;;5.70;;
53694;SDS011;39588;51.124;7.190;2023-05-21T10:25:36;11.57;;;6.17;;
53694;SDS011;39588;51.124;7.190;2023-05-21T10:28:02;10.47;;;6.23;;
53694;SDS011;39588;51.124;7.190;2023-05-21T10:30:30;8.60;;;5.63;;
53694;SDS011;39588;51.124;7.190;2023-05-21T10:32:56;9.67;;;6.10;;
53694;SDS011;39588;51.124;7.190;2023-05-21T10:35:23;9.60;;;5.97;;
53694;SDS011;39588;51.124;7.190;2023-05-21T10:37:50;6.37;;;5.23;;
53694;SDS011;39588;51.124;7.190;2023-05-21T10:40:16;7.33;;;6.20;;
53694;SDS011;39588;51.124;7.190;2023-05-21T10:42:47;7.83;;;5.57;;
53694;SDS011;39588;51.124;7.190;2023-05-21T10:54:02;9.20;;;6.33;;
53694;SDS011;39588;51.124;7.190;2023-05-21T10:59:50;7.43;;;5.70;;
53694;SDS011;39588;51.124;7.190;2023-05-21T11:02:16;7.10;;;5.43;;
53694;SDS011;39588;51.124;7.190;2023-05-21T11:04:43;6.70;;;5.17;;
53694;SDS011;39588;51.124;7.190;2023-05-21T11:07:10;8.77;;;6.10;;
53694;SDS011;39588;51.124;7.190;2023-05-21T11:09:37;8.90;;;5.77;;
53694;SDS011;39588;51.124;7.190;2023-05-21T11:12:02;8.10;;;6.23;;
53694;SDS011;39588;51.124;7.190;2023-05-21T11:14:32;10.97;;;7.23;;
53694;SDS011;39588;51.124;7.190;2023-05-21T11:17:13;11.87;;;6.30;;
53694;SDS011;39588;51.124;7.190;2023-05-21T11:19:46;9.57;;;5.77;;
53694;SDS011;39588;51.124;7.190;2023-05-21T11:22:22;9.83;;;6.33;;
53694;SDS011;39588;51.124;7.190;2023-05-21T11:24:49;10.27;;;6.33;;
53694;SDS011;39588;51.124;7.190;2023-05-21T11:30:02;8.77;;;6.27;;
53694;SDS011;39588;51.124;7.190;2023-05-21T11:32:28;7.87;;;6.13;;
53694;SDS011;39588;51.124;7.190;2023-05-21T11:34:55;9.20;;;5.73;;
53694;SDS011;39588;51.124;7.190;2023-05-21T11:37:26;12.67;;;5.60;;
53694;SDS011;39588;51.124;7.190;2023-05-21T11:42:52;12.63;;;6.07;;
53694;SDS011;39588;51.124;7.190;2023-05-21T11:45:20;6.73;;;5.23;;
53694;SDS011;39588;51.124;7.190;2023-05-21T11:47:52;8.00;;;5.87;;
53694;SDS011;39588;51.124;7.190;2023-05-21T11:50:20;7.17;;;5.83;;
53694;SDS011;39588;51.124;7.190;2023-05-21T11:52:45;7.20;;;5.47;;
53694;SDS011;39588;51.124;7.190;2023-05-21T11:55:12;7.80;;;5.80;;
53694;SDS011;39588;51.124;7.190;2023-05-21T11:57:40;8.50;;;5.90;;
53694;SDS011;39588;51.124;7.190;2023-05-21T12:00:12;10.70;;;5.90;;
53694;SDS011;39588;51.124;7.190;2023-05-21T12:02:51;9.73;;;6.00;;
53694;SDS011;39588;51.124;7.190;2023-05-21T12:05:17;8.63;;;6.00;;
53694;SDS011;39588;51.124;7.190;2023-05-21T12:07:46;9.30;;;5.47;;
53694;SDS011;39588;51.124;7.190;2023-05-21T12:10:14;8.43;;;5.93;;
53694;SDS011;39588;51.124;7.190;2023-05-21T12:12:40;11.13;;;5.17;;
53694;SDS011;39588;51.124;7.190;2023-05-21T12:15:05;7.33;;;5.87;;
53694;SDS011;39588;51.124;7.190;2023-05-21T12:17:31;12.40;;;5.60;;
53694;SDS011;39588;51.124;7.190;2023-05-21T12:19:57;6.83;;;5.20;;
53694;SDS011;39588;51.124;7.190;2023-05-21T12:22:23;8.57;;;5.63;;
53694;SDS011;39588;51.124;7.190;2023-05-21T12:24:50;9.60;;;6.30;;
53694;SDS011;39588;51.124;7.190;2023-05-21T12:27:17;9.33;;;6.50;;
53694;SDS011;39588;51.124;7.190;2023-05-21T12:29:43;8.73;;;6.13;;
53694;SDS011;39588;51.124;7.190;2023-05-21T12:32:10;6.47;;;5.47;;
53694;SDS011;39588;51.124;7.190;2023-05-21T12:34:41;7.03;;;5.87;;
53694;SDS011;39588;51.124;7.190;2023-05-21T12:37:10;9.63;;;5.07;;
53694;SDS011;39588;51.124;7.190;2023-05-21T12:39:40;8.60;;;5.70;;
53694;SDS011;39588;51.124;7.190;2023-05-21T12:42:09;9.70;;;4.70;;
53694;SDS011;39588;51.124;7.190;2023-05-21T12:44:35;8.73;;;5.90;;
53694;SDS011;39588;51.124;7.190;2023-05-21T12:47:02;8.20;;;5.50;;
53694;SDS011;39588;51.124;7.190;2023-05-21T12:49:29;6.70;;;4.97;;
53694;SDS011;39588;51.124;7.190;2023-05-21T12:52:11;10.00;;;6.07;;
53694;SDS011;39588;51.124;7.190;2023-05-21T12:54:39;7.27;;;5.57;;
53694;SDS011;39588;51.124;7.190;2023-05-21T12:57:08;12.57;;;5.80;;
53694;SDS011;39588;51.124;7.190;2023-05-21T12:59:53;7.13;;;5.37;;
53694;SDS011;39588;51.124;7.190;2023-05-21T13:05:00;8.50;;;5.87;;
53694;SDS011;39588;51.124;7.190;2023-05-21T13:07:28;10.03;;;5.60;;
53694;SDS011;39588;51.124;7.190;2023-05-21T13:09:55;7.17;;;5.63;;
53694;SDS011;39588;51.124;7.190;2023-05-21T13:12:21;7.53;;;5.70;;
53694;SDS011;39588;51.124;7.190;2023-05-21T13:14:49;6.97;;;5.60;;
53694;SDS011;39588;51.124;7.190;2023-05-21T13:17:15;7.53;;;5.93;;
53694;SDS011;39588;51.124;7.190;2023-05-21T13:19:41;6.73;;;5.83;;
53694;SDS011;39588;51.124;7.190;2023-05-21T13:22:07;6.90;;;5.50;;
53694;SDS011;39588;51.124;7.190;2023-05-21T13:24:34;7.57;;;5.70;;
53694;SDS011;39588;51.124;7.190;2023-05-21T13:27:01;7.43;;;5.33;;
53694;SDS011;39588;51.124;7.190;2023-05-21T13:29:27;12.10;;;5.23;;
53694;SDS011;39588;51.124;7.190;2023-05-21T13:31:53;5.57;;;4.90;;
53694;SDS011;39588;51.124;7.190;2023-05-21T13:34:18;10.83;;;5.17;;
53694;SDS011;39588;51.124;7.190;2023-05-21T13:36:44;8.07;;;5.07;;
53694;SDS011;39588;51.124;7.190;2023-05-21T13:39:10;8.53;;;5.40;;
53694;SDS011;39588;51.124;7.190;2023-05-21T13:41:36;8.20;;;5.43;;
53694;SDS011;39588;51.124;7.190;2023-05-21T13:44:02;10.50;;;6.60;;
53694;SDS011;39588;51.124;7.190;2023-05-21T13:46:28;8.10;;;5.60;;
53694;SDS011;39588;51.124;7.190;2023-05-21T13:48:53;8.97;;;5.60;;
53694;SDS011;39588;51.124;7.190;2023-05-21T13:51:19;9.57;;;6.40;;
53694;SDS011;39588;51.124;7.190;2023-05-21T13:53:45;8.07;;;5.77;;
53694;SDS011;39588;51.124;7.190;2023-05-21T13:56:10;8.43;;;5.80;;
53694;SDS011;39588;51.124;7.190;2023-05-21T13:58:36;7.30;;;5.67;;
53694;SDS011;39588;51.124;7.190;2023-05-21T14:01:04;7.53;;;5.27;;
53694;SDS011;39588;51.124;7.190;2023-05-21T14:03:30;8.77;;;6.50;;
53694;SDS011;39588;51.124;7.190;2023-05-21T14:05:55;8.17;;;5.93;;
53694;SDS011;39588;51.124;7.190;2023-05-21T14:08:23;7.63;;;5.80;;
53694;SDS011;39588;51.124;7.190;2023-05-21T14:10:49;8.67;;;5.80;;
53694;SDS011;39588;51.124;7.190;2023-05-21T14:13:15;9.67;;;5.63;;
53694;SDS011;39588;51.124;7.190;2023-05-21T14:15:42;8.90;;;6.20;;
53694;SDS011;39588;51.124;7.190;2023-05-21T14:18:07;9.80;;;6.30;;
53694;SDS011;39588;51.124;7.190;2023-05-21T14:20:36;7.43;;;5.70;;
53694;SDS011;39588;51.124;7.190;2023-05-21T14:23:03;10.10;;;6.30;;
53694;SDS011;39588;51.124;7.190;2023-05-21T14:25:29;9.77;;;6.20;;
53694;SDS011;39588;51.124;7.190;2023-05-21T14:27:54;8.47;;;6.13;;
53694;SDS011;39588;51.124;7.190;2023-05-21T14:30:20;9.47;;;6.37;;
53694;SDS011;39588;51.124;7.190;2023-05-21T14:32:46;10.33;;;6.50;;
53694;SDS011;39588;51.124;7.190;2023-05-21T14:35:11;6.70;;;5.63;;
53694;SDS011;39588;51.124;7.190;2023-05-21T14:37:37;23.13;;;6.60;;
53694;SDS011;39588;51.124;7.190;2023-05-21T14:40:03;13.83;;;5.80;;
53694;SDS011;39588;51.124;7.190;2023-05-21T14:42:31;8.67;;;6.60;;
53694;SDS011;39588;51.124;7.190;2023-05-21T14:44:57;13.87;;;5.83;;
53694;SDS011;39588;51.124;7.190;2023-05-21T14:47:23;8.43;;;6.07;;
53694;SDS011;39588;51.124;7.190;2023-05-21T14:49:49;6.73;;;5.60;;
53694;SDS011;39588;51.124;7.190;2023-05-21T14:52:15;14.73;;;6.17;;
53694;SDS011;39588;51.124;7.190;2023-05-21T14:54:40;5.27;;;4.77;;
53694;SDS011;39588;51.124;7.190;2023-05-21T14:57:06;10.33;;;6.30;;
53694;SDS011;39588;51.124;7.190;2023-05-21T14:59:31;6.80;;;5.60;;
53694;SDS011;39588;51.124;7.190;2023-05-21T15:01:57;8.90;;;5.73;;
53694;SDS011;39588;51.124;7.190;2023-05-21T15:04:23;8.37;;;5.33;;
53694;SDS011;39588;51.124;7.190;2023-05-21T15:06:48;9.60;;;6.40;;
53694;SDS011;39588;51.124;7.190;2023-05-21T15:09:14;9.53;;;6.27;;
53694;SDS011;39588;51.124;7.190;2023-05-21T15:11:40;9.33;;;6.07;;